Arborg, Canada
Current Conditions -  °F | °C
As of 3:00 AM on Sunday 21 Dec 2014 (Local Time) from CYWG Reporting Station
Light Snow Light Snow  
Wind Chill: 17°   Ceiling: 400
Heat Index: 28°   Visibility: 2.5mi
Dew Point: 28°   Wind: 14mph
Humidity: 100%   Direction: 170°S
Pressure: 29.75"   Gusts: NA
Location:  50.91°N, 97.22°W
Report Text: CYWG 210900Z 17012KT 2 1/2SM -SN BR OVC004 M02/M02 A2975 RMK ST8 SLP088
Loading
Personal Weather Stations






























Interactive Weather Map New forecast layout! Learn more

10-Day Weather Forecast

Advertisements
Track Severe Weather on mobile